sensor_id;sensor_type;location;lat;lon;timestamp;P1;durP1;ratioP1;P2;durP2;ratioP2
39674;SDS011;27790;50.840;4.386;2022-11-25T10:41:23;6.93;;;2.03;;
39674;SDS011;27790;50.840;4.386;2022-11-25T10:43:51;9.15;;;1.95;;
39674;SDS011;27790;50.840;4.386;2022-11-25T10:59:36;9.38;;;2.40;;
39674;SDS011;27790;50.840;4.386;2022-11-25T11:02:43;11.73;;;2.75;;
39674;SDS011;27790;50.840;4.386;2022-11-25T11:07:28;13.75;;;2.75;;
39674;SDS011;27790;50.840;4.386;2022-11-25T11:15:29;17.08;;;3.25;;
39674;SDS011;27790;50.840;4.386;2022-11-25T11:17:56;12.50;;;3.42;;
39674;SDS011;27790;50.840;4.386;2022-11-25T11:20:26;13.18;;;3.42;;
39674;SDS011;27790;50.840;4.386;2022-11-25T11:25:38;7.80;;;2.58;;
39674;SDS011;27790;50.840;4.386;2022-11-25T11:44:43;12.02;;;3.78;;
39674;SDS011;27790;50.840;4.386;2022-11-25T11:58:34;12.45;;;3.58;;
39674;SDS011;27790;50.840;4.386;2022-11-25T12:06:25;20.13;;;3.95;;
39674;SDS011;27790;50.840;4.386;2022-11-25T12:08:55;16.25;;;3.63;;
39674;SDS011;27790;50.840;4.386;2022-11-25T12:11:27;12.13;;;3.42;;
39674;SDS011;27790;50.840;4.386;2022-11-25T12:14:03;12.63;;;3.20;;
39674;SDS011;27790;50.840;4.386;2022-11-25T12:16:51;8.18;;;2.88;;
39674;SDS011;27790;50.840;4.386;2022-11-25T12:19:24;14.80;;;2.90;;
39674;SDS011;27790;50.840;4.386;2022-11-25T12:24:31;21.67;;;5.57;;
39674;SDS011;27790;50.840;4.386;2022-11-25T12:27:07;13.02;;;3.63;;
39674;SDS011;27790;50.840;4.386;2022-11-25T12:29:37;17.55;;;3.85;;
39674;SDS011;27790;50.840;4.386;2022-11-25T12:34:58;10.95;;;3.15;;
39674;SDS011;27790;50.840;4.386;2022-11-25T12:37:38;21.10;;;4.25;;
39674;SDS011;27790;50.840;4.386;2022-11-25T12:43:23;19.90;;;3.60;;
39674;SDS011;27790;50.840;4.386;2022-11-25T12:46:02;8.05;;;2.83;;
39674;SDS011;27790;50.840;4.386;2022-11-25T12:48:49;13.63;;;3.15;;
39674;SDS011;27790;50.840;4.386;2022-11-25T12:56:37;12.82;;;3.35;;
39674;SDS011;27790;50.840;4.386;2022-11-25T13:10:30;19.13;;;4.53;;
39674;SDS011;27790;50.840;4.386;2022-11-25T13:15:41;11.90;;;3.83;;
39674;SDS011;27790;50.840;4.386;2022-11-25T13:18:10;16.77;;;3.42;;
39674;SDS011;27790;50.840;4.386;2022-11-25T13:20:45;15.43;;;3.65;;
39674;SDS011;27790;50.840;4.386;2022-11-25T13:25:46;19.10;;;3.80;;
39674;SDS011;27790;50.840;4.386;2022-11-25T13:36:42;23.67;;;5.07;;
39674;SDS011;27790;50.840;4.386;2022-11-25T13:39:17;24.20;;;4.28;;
39674;SDS011;27790;50.840;4.386;2022-11-25T13:50:03;20.75;;;4.25;;
39674;SDS011;27790;50.840;4.386;2022-11-25T13:52:46;10.30;;;4.20;;
39674;SDS011;27790;50.840;4.386;2022-11-25T13:55:36;13.90;;;3.70;;
39674;SDS011;27790;50.840;4.386;2022-11-25T14:19:15;16.95;;;3.67;;
39674;SDS011;27790;50.840;4.386;2022-11-25T14:24:49;26.27;;;5.00;;
39674;SDS011;27790;50.840;4.386;2022-11-25T14:27:24;20.02;;;4.30;;
39674;SDS011;27790;50.840;4.386;2022-11-25T14:29:58;11.18;;;3.55;;
39674;SDS011;27790;50.840;4.386;2022-11-25T14:32:33;17.55;;;4.80;;
39674;SDS011;27790;50.840;4.386;2022-11-25T14:35:13;24.98;;;5.15;;
39674;SDS011;27790;50.840;4.386;2022-11-25T14:37:49;14.18;;;3.80;;
39674;SDS011;27790;50.840;4.386;2022-11-25T14:40:21;20.08;;;4.20;;
39674;SDS011;27790;50.840;4.386;2022-11-25T14:43:11;21.40;;;4.35;;
39674;SDS011;27790;50.840;4.386;2022-11-25T14:45:40;19.08;;;3.88;;
39674;SDS011;27790;50.840;4.386;2022-11-25T14:50:39;13.67;;;4.80;;
39674;SDS011;27790;50.840;4.386;2022-11-25T14:53:16;18.75;;;4.65;;
39674;SDS011;27790;50.840;4.386;2022-11-25T14:55:42;14.88;;;4.78;;
39674;SDS011;27790;50.840;4.386;2022-11-25T14:58:12;18.70;;;4.55;;
39674;SDS011;27790;50.840;4.386;2022-11-25T15:03:17;20.42;;;5.40;;
39674;SDS011;27790;50.840;4.386;2022-11-25T15:05:44;30.40;;;5.35;;
39674;SDS011;27790;50.840;4.386;2022-11-25T15:08:19;20.95;;;4.35;;
39674;SDS011;27790;50.840;4.386;2022-11-25T15:10:53;19.73;;;3.63;;
39674;SDS011;27790;50.840;4.386;2022-11-25T15:16:20;19.63;;;3.83;;
39674;SDS011;27790;50.840;4.386;2022-11-25T15:18:47;20.63;;;4.85;;
39674;SDS011;27790;50.840;4.386;2022-11-25T15:21:15;20.38;;;3.63;;
39674;SDS011;27790;50.840;4.386;2022-11-25T15:23:44;16.05;;;3.90;;
39674;SDS011;27790;50.840;4.386;2022-11-25T15:26:18;30.83;;;4.68;;
39674;SDS011;27790;50.840;4.386;2022-11-25T15:28:58;19.35;;;4.70;;
39674;SDS011;27790;50.840;4.386;2022-11-25T15:31:34;19.50;;;5.00;;
39674;SDS011;27790;50.840;4.386;2022-11-25T15:34:03;23.60;;;4.72;;
39674;SDS011;27790;50.840;4.386;2022-11-25T15:36:31;14.55;;;4.13;;
39674;SDS011;27790;50.840;4.386;2022-11-25T15:41:47;19.52;;;4.30;;
39674;SDS011;27790;50.840;4.386;2022-11-25T15:44:21;20.60;;;5.30;;
39674;SDS011;27790;50.840;4.386;2022-11-25T15:46:55;18.50;;;4.63;;
39674;SDS011;27790;50.840;4.386;2022-11-25T15:49:26;22.30;;;5.28;;
39674;SDS011;27790;50.840;4.386;2022-11-25T15:51:54;20.42;;;4.63;;
39674;SDS011;27790;50.840;4.386;2022-11-25T15:54:28;20.30;;;3.97;;
39674;SDS011;27790;50.840;4.386;2022-11-25T15:56:58;28.00;;;5.28;;
39674;SDS011;27790;50.840;4.386;2022-11-25T16:07:36;21.05;;;5.05;;
39674;SDS011;27790;50.840;4.386;2022-11-25T16:15:45;18.23;;;4.97;;
39674;SDS011;27790;50.840;4.386;2022-11-25T16:20:49;19.90;;;4.72;;
39674;SDS011;27790;50.840;4.386;2022-11-25T16:23:18;25.40;;;4.85;;
39674;SDS011;27790;50.840;4.386;2022-11-25T16:26:04;23.55;;;5.13;;
39674;SDS011;27790;50.840;4.386;2022-11-25T16:28:39;42.58;;;5.13;;
39674;SDS011;27790;50.840;4.386;2022-11-25T16:31:12;24.98;;;5.50;;
39674;SDS011;27790;50.840;4.386;2022-11-25T16:33:40;26.33;;;5.60;;
39674;SDS011;27790;50.840;4.386;2022-11-25T16:36:06;35.97;;;6.65;;
39674;SDS011;27790;50.840;4.386;2022-11-25T16:38:32;22.42;;;6.35;;
39674;SDS011;27790;50.840;4.386;2022-11-25T16:40:57;27.17;;;5.82;;
39674;SDS011;27790;50.840;4.386;2022-11-25T16:43:24;26.05;;;6.32;;
39674;SDS011;27790;50.840;4.386;2022-11-25T16:45:52;17.50;;;5.63;;
39674;SDS011;27790;50.840;4.386;2022-11-25T16:48:22;26.67;;;5.75;;
39674;SDS011;27790;50.840;4.386;2022-11-25T16:50:48;25.65;;;6.40;;
39674;SDS011;27790;50.840;4.386;2022-11-25T16:53:14;25.42;;;6.70;;
39674;SDS011;27790;50.840;4.386;2022-11-25T16:55:41;24.55;;;6.07;;
39674;SDS011;27790;50.840;4.386;2022-11-25T17:00:50;25.85;;;5.82;;
39674;SDS011;27790;50.840;4.386;2022-11-25T17:03:18;31.52;;;6.75;;
39674;SDS011;27790;50.840;4.386;2022-11-25T17:05:46;25.10;;;5.47;;
39674;SDS011;27790;50.840;4.386;2022-11-25T17:08:12;32.45;;;4.82;;
39674;SDS011;27790;50.840;4.386;2022-11-25T17:10:38;24.85;;;5.53;;
39674;SDS011;27790;50.840;4.386;2022-11-25T17:13:08;22.60;;;5.13;;
39674;SDS011;27790;50.840;4.386;2022-11-25T17:15:42;23.08;;;6.15;;
39674;SDS011;27790;50.840;4.386;2022-11-25T17:18:09;27.88;;;7.55;;
39674;SDS011;27790;50.840;4.386;2022-11-25T17:20:38;26.35;;;6.85;;
39674;SDS011;27790;50.840;4.386;2022-11-25T17:23:05;24.85;;;6.90;;
39674;SDS011;27790;50.840;4.386;2022-11-25T17:25:36;24.63;;;5.70;;
39674;SDS011;27790;50.840;4.386;2022-11-25T17:28:02;24.25;;;7.00;;
39674;SDS011;27790;50.840;4.386;2022-11-25T17:30:28;36.53;;;7.22;;
39674;SDS011;27790;50.840;4.386;2022-11-25T17:32:57;29.67;;;7.15;;
39674;SDS011;27790;50.840;4.386;2022-11-25T17:35:28;31.30;;;8.52;;
39674;SDS011;27790;50.840;4.386;2022-11-25T17:37:53;24.30;;;6.10;;
39674;SDS011;27790;50.840;4.386;2022-11-25T17:40:22;23.77;;;6.80;;
39674;SDS011;27790;50.840;4.386;2022-11-25T17:42:47;29.27;;;6.22;;
39674;SDS011;27790;50.840;4.386;2022-11-25T17:45:14;33.60;;;7.22;;
39674;SDS011;27790;50.840;4.386;2022-11-25T17:47:41;21.85;;;6.95;;
39674;SDS011;27790;50.840;4.386;2022-11-25T17:52:44;21.33;;;7.55;;
39674;SDS011;27790;50.840;4.386;2022-11-25T17:55:10;23.95;;;6.47;;
39674;SDS011;27790;50.840;4.386;2022-11-25T17:57:43;26.98;;;7.32;;
39674;SDS011;27790;50.840;4.386;2022-11-25T18:00:13;27.05;;;7.25;;
39674;SDS011;27790;50.840;4.386;2022-11-25T18:02:40;28.98;;;7.97;;
39674;SDS011;27790;50.840;4.386;2022-11-25T18:05:13;19.73;;;7.88;;
39674;SDS011;27790;50.840;4.386;2022-11-25T18:07:46;23.98;;;7.32;;
39674;SDS011;27790;50.840;4.386;2022-11-25T18:10:14;31.23;;;8.07;;
39674;SDS011;27790;50.840;4.386;2022-11-25T18:12:41;18.25;;;6.45;;
39674;SDS011;27790;50.840;4.386;2022-11-25T18:15:13;25.30;;;7.65;;
39674;SDS011;27790;50.840;4.386;2022-11-25T18:17:43;22.55;;;6.82;;
39674;SDS011;27790;50.840;4.386;2022-11-25T18:20:16;24.65;;;7.28;;
39674;SDS011;27790;50.840;4.386;2022-11-25T18:22:46;26.77;;;7.68;;
39674;SDS011;27790;50.840;4.386;2022-11-25T18:25:18;22.00;;;7.65;;
39674;SDS011;27790;50.840;4.386;2022-11-25T18:27:46;24.48;;;8.18;;
39674;SDS011;27790;50.840;4.386;2022-11-25T18:30:19;30.45;;;8.68;;
39674;SDS011;27790;50.840;4.386;2022-11-25T18:32:47;22.45;;;6.50;;
39674;SDS011;27790;50.840;4.386;2022-11-25T18:35:14;23.02;;;7.07;;
39674;SDS011;27790;50.840;4.386;2022-11-25T18:37:40;28.63;;;7.55;;
39674;SDS011;27790;50.840;4.386;2022-11-25T18:40:06;40.45;;;8.98;;
39674;SDS011;27790;50.840;4.386;2022-11-25T18:42:32;28.85;;;8.50;;
39674;SDS011;27790;50.840;4.386;2022-11-25T18:44:57;26.15;;;7.05;;
39674;SDS011;27790;50.840;4.386;2022-11-25T18:47:23;27.15;;;8.88;;
39674;SDS011;27790;50.840;4.386;2022-11-25T18:49:49;33.30;;;7.72;;
39674;SDS011;27790;50.840;4.386;2022-11-25T18:52:14;28.77;;;8.82;;
39674;SDS011;27790;50.840;4.386;2022-11-25T18:54:40;24.20;;;7.95;;
39674;SDS011;27790;50.840;4.386;2022-11-25T18:57:05;41.33;;;8.90;;
39674;SDS011;27790;50.840;4.386;2022-11-25T18:59:33;28.40;;;9.07;;
39674;SDS011;27790;50.840;4.386;2022-11-25T19:02:01;27.85;;;8.48;;
39674;SDS011;27790;50.840;4.386;2022-11-25T19:04:26;33.03;;;7.80;;
39674;SDS011;27790;50.840;4.386;2022-11-25T19:06:52;35.15;;;10.48;;
39674;SDS011;27790;50.840;4.386;2022-11-25T19:09:18;34.20;;;9.43;;
39674;SDS011;27790;50.840;4.386;2022-11-25T19:11:45;30.52;;;8.15;;
39674;SDS011;27790;50.840;4.386;2022-11-25T19:16:59;28.65;;;8.70;;
39674;SDS011;27790;50.840;4.386;2022-11-25T19:19:27;27.52;;;8.30;;
39674;SDS011;27790;50.840;4.386;2022-11-25T19:21:53;20.45;;;8.00;;
39674;SDS011;27790;50.840;4.386;2022-11-25T19:24:19;35.08;;;9.05;;
39674;SDS011;27790;50.840;4.386;2022-11-25T19:26:46;25.17;;;8.23;;
39674;SDS011;27790;50.840;4.386;2022-11-25T19:29:17;24.35;;;8.73;;
39674;SDS011;27790;50.840;4.386;2022-11-25T19:31:45;22.98;;;8.18;;
39674;SDS011;27790;50.840;4.386;2022-11-25T19:34:19;34.63;;;8.80;;
39674;SDS011;27790;50.840;4.386;2022-11-25T19:36:49;28.30;;;9.52;;
39674;SDS011;27790;50.840;4.386;2022-11-25T19:39:15;27.92;;;9.25;;
39674;SDS011;27790;50.840;4.386;2022-11-25T19:41:44;34.03;;;8.88;;
39674;SDS011;27790;50.840;4.386;2022-11-25T19:44:09;28.50;;;10.20;;
39674;SDS011;27790;50.840;4.386;2022-11-25T19:46:35;32.47;;;9.30;;
39674;SDS011;27790;50.840;4.386;2022-11-25T19:49:04;45.67;;;11.45;;
39674;SDS011;27790;50.840;4.386;2022-11-25T19:51:31;32.10;;;10.27;;
39674;SDS011;27790;50.840;4.386;2022-11-25T19:53:58;35.58;;;11.48;;
39674;SDS011;27790;50.840;4.386;2022-11-25T19:56:24;35.85;;;9.63;;
39674;SDS011;27790;50.840;4.386;2022-11-25T19:58:51;28.42;;;9.88;;
39674;SDS011;27790;50.840;4.386;2022-11-25T20:01:18;30.23;;;9.82;;
39674;SDS011;27790;50.840;4.386;2022-11-25T20:03:46;39.20;;;10.75;;
39674;SDS011;27790;50.840;4.386;2022-11-25T20:06:16;35.90;;;10.68;;
39674;SDS011;27790;50.840;4.386;2022-11-25T20:08:43;26.30;;;9.38;;
39674;SDS011;27790;50.840;4.386;2022-11-25T20:11:16;31.52;;;10.73;;
39674;SDS011;27790;50.840;4.386;2022-11-25T20:13:43;31.25;;;8.45;;
39674;SDS011;27790;50.840;4.386;2022-11-25T20:16:16;33.15;;;10.90;;
39674;SDS011;27790;50.840;4.386;2022-11-25T20:18:43;34.00;;;9.93;;
39674;SDS011;27790;50.840;4.386;2022-11-25T20:21:13;32.65;;;11.30;;
39674;SDS011;27790;50.840;4.386;2022-11-25T20:23:44;29.42;;;10.82;;
39674;SDS011;27790;50.840;4.386;2022-11-25T20:26:13;32.28;;;10.55;;
39674;SDS011;27790;50.840;4.386;2022-11-25T20:28:48;32.65;;;10.63;;
39674;SDS011;27790;50.840;4.386;2022-11-25T20:31:14;36.55;;;11.13;;
39674;SDS011;27790;50.840;4.386;2022-11-25T20:33:39;27.05;;;11.13;;
39674;SDS011;27790;50.840;4.386;2022-11-25T20:38:51;38.58;;;11.38;;
39674;SDS011;27790;50.840;4.386;2022-11-25T20:41:19;37.45;;;10.77;;
39674;SDS011;27790;50.840;4.386;2022-11-25T20:43:46;34.28;;;11.25;;
39674;SDS011;27790;50.840;4.386;2022-11-25T20:46:20;30.13;;;10.43;;
39674;SDS011;27790;50.840;4.386;2022-11-25T20:48:47;35.17;;;10.57;;
39674;SDS011;27790;50.840;4.386;2022-11-25T20:51:16;25.95;;;10.07;;
39674;SDS011;27790;50.840;4.386;2022-11-25T20:54:05;49.38;;;11.95;;
39674;SDS011;27790;50.840;4.386;2022-11-25T20:56:30;34.90;;;11.32;;
39674;SDS011;27790;50.840;4.386;2022-11-25T20:58:56;27.38;;;10.25;;
39674;SDS011;27790;50.840;4.386;2022-11-25T21:01:21;33.42;;;11.38;;
39674;SDS011;27790;50.840;4.386;2022-11-25T21:03:47;31.65;;;12.40;;
39674;SDS011;27790;50.840;4.386;2022-11-25T21:08:53;25.60;;;9.70;;
39674;SDS011;27790;50.840;4.386;2022-11-25T21:11:20;34.50;;;10.90;;
39674;SDS011;27790;50.840;4.386;2022-11-25T21:13:47;34.20;;;10.30;;
39674;SDS011;27790;50.840;4.386;2022-11-25T21:16:13;38.13;;;10.80;;
39674;SDS011;27790;50.840;4.386;2022-11-25T21:18:40;39.33;;;11.48;;
39674;SDS011;27790;50.840;4.386;2022-11-25T21:21:27;35.40;;;11.57;;
39674;SDS011;27790;50.840;4.386;2022-11-25T21:23:54;32.92;;;11.98;;
39674;SDS011;27790;50.840;4.386;2022-11-25T21:26:21;36.88;;;10.27;;
39674;SDS011;27790;50.840;4.386;2022-11-25T21:28:50;30.35;;;10.20;;
39674;SDS011;27790;50.840;4.386;2022-11-25T21:31:21;28.85;;;10.00;;
39674;SDS011;27790;50.840;4.386;2022-11-25T21:33:48;32.80;;;9.15;;
39674;SDS011;27790;50.840;4.386;2022-11-25T21:36:19;35.60;;;10.65;;
39674;SDS011;27790;50.840;4.386;2022-11-25T21:38:47;30.02;;;10.38;;
39674;SDS011;27790;50.840;4.386;2022-11-25T21:41:15;33.78;;;9.65;;
39674;SDS011;27790;50.840;4.386;2022-11-25T21:43:43;37.42;;;10.75;;
39674;SDS011;27790;50.840;4.386;2022-11-25T21:46:21;25.08;;;9.75;;
39674;SDS011;27790;50.840;4.386;2022-11-25T21:48:51;36.55;;;10.98;;
39674;SDS011;27790;50.840;4.386;2022-11-25T21:51:17;36.03;;;11.40;;
39674;SDS011;27790;50.840;4.386;2022-11-25T21:53:48;32.22;;;10.98;;
39674;SDS011;27790;50.840;4.386;2022-11-25T21:56:24;46.70;;;10.55;;
39674;SDS011;27790;50.840;4.386;2022-11-25T21:58:52;36.53;;;10.57;;
39674;SDS011;27790;50.840;4.386;2022-11-25T22:01:18;46.65;;;10.85;;
39674;SDS011;27790;50.840;4.386;2022-11-25T22:03:44;31.88;;;9.88;;
39674;SDS011;27790;50.840;4.386;2022-11-25T22:08:51;35.67;;;10.50;;
39674;SDS011;27790;50.840;4.386;2022-11-25T22:11:23;28.45;;;9.57;;
39674;SDS011;27790;50.840;4.386;2022-11-25T22:13:54;30.58;;;10.50;;
39674;SDS011;27790;50.840;4.386;2022-11-25T22:16:22;24.95;;;8.55;;
39674;SDS011;27790;50.840;4.386;2022-11-25T22:18:52;26.92;;;9.13;;
39674;SDS011;27790;50.840;4.386;2022-11-25T22:21:18;29.15;;;10.50;;
39674;SDS011;27790;50.840;4.386;2022-11-25T22:23:44;33.28;;;9.63;;
39674;SDS011;27790;50.840;4.386;2022-11-25T22:26:15;38.22;;;9.52;;
39674;SDS011;27790;50.840;4.386;2022-11-25T22:31:19;36.45;;;9.52;;
39674;SDS011;27790;50.840;4.386;2022-11-25T22:33:46;36.30;;;10.27;;
39674;SDS011;27790;50.840;4.386;2022-11-25T22:36:45;38.33;;;11.63;;
39674;SDS011;27790;50.840;4.386;2022-11-25T22:39:13;30.10;;;9.65;;
39674;SDS011;27790;50.840;4.386;2022-11-25T22:41:44;37.45;;;10.40;;
39674;SDS011;27790;50.840;4.386;2022-11-25T22:44:17;26.23;;;10.38;;
39674;SDS011;27790;50.840;4.386;2022-11-25T22:46:43;30.35;;;9.65;;
39674;SDS011;27790;50.840;4.386;2022-11-25T22:51:57;30.30;;;9.68;;
39674;SDS011;27790;50.840;4.386;2022-11-25T22:54:23;34.72;;;9.43;;
39674;SDS011;27790;50.840;4.386;2022-11-25T22:56:49;36.63;;;10.02;;
39674;SDS011;27790;50.840;4.386;2022-11-25T22:59:15;47.45;;;10.05;;
39674;SDS011;27790;50.840;4.386;2022-11-25T23:01:40;40.40;;;10.45;;
39674;SDS011;27790;50.840;4.386;2022-11-25T23:04:12;40.47;;;10.18;;
39674;SDS011;27790;50.840;4.386;2022-11-25T23:06:47;28.95;;;9.88;;
39674;SDS011;27790;50.840;4.386;2022-11-25T23:09:15;28.38;;;8.40;;
39674;SDS011;27790;50.840;4.386;2022-11-25T23:11:42;28.08;;;10.77;;
39674;SDS011;27790;50.840;4.386;2022-11-25T23:14:08;28.38;;;9.57;;
39674;SDS011;27790;50.840;4.386;2022-11-25T23:16:33;30.95;;;10.20;;
39674;SDS011;27790;50.840;4.386;2022-11-25T23:18:59;28.10;;;10.32;;
39674;SDS011;27790;50.840;4.386;2022-11-25T23:21:28;48.60;;;10.85;;
39674;SDS011;27790;50.840;4.386;2022-11-25T23:23:54;23.67;;;9.38;;
39674;SDS011;27790;50.840;4.386;2022-11-25T23:26:20;35.85;;;11.23;;
39674;SDS011;27790;50.840;4.386;2022-11-25T23:28:46;34.83;;;11.05;;
39674;SDS011;27790;50.840;4.386;2022-11-25T23:31:12;35.47;;;10.55;;
39674;SDS011;27790;50.840;4.386;2022-11-25T23:33:40;29.95;;;9.25;;
39674;SDS011;27790;50.840;4.386;2022-11-25T23:36:09;30.63;;;9.25;;
39674;SDS011;27790;50.840;4.386;2022-11-25T23:38:41;32.22;;;10.32;;
39674;SDS011;27790;50.840;4.386;2022-11-25T23:41:13;35.15;;;9.25;;
39674;SDS011;27790;50.840;4.386;2022-11-25T23:43:43;34.08;;;9.75;;
39674;SDS011;27790;50.840;4.386;2022-11-25T23:46:08;34.85;;;10.20;;
39674;SDS011;27790;50.840;4.386;2022-11-25T23:48:38;32.17;;;8.98;;
39674;SDS011;27790;50.840;4.386;2022-11-25T23:51:05;40.90;;;9.80;;
39674;SDS011;27790;50.840;4.386;2022-11-25T23:53:32;31.73;;;9.18;;
39674;SDS011;27790;50.840;4.386;2022-11-25T23:56:02;26.90;;;8.93;;
39674;SDS011;27790;50.840;4.386;2022-11-25T23:58:28;28.65;;;10.20;;
